CheckWX is a tool to help pilots better visualize weather data.  It is not intended as a substitute for an official pre-flight weather briefing.

13:30:29 UTC

KHBG TAF
Hattiesburg Bobby L Chain Municipal Airport
Hattiesburg, Mississippi, USA
KHBG 171121Z 1712/1812 00000KT 5SM BR SKC FM171400 VRB03KT P6SM SKC

Nov-17@
12:00 UTC

Nov-17 @ 12:00 UTC

Nov-17@
14:00 UTC

Nov-17 @ 14:00 UTC

KHBG 171121Z 1712/1812 00000KT 5SM BR SKC
Conditions
Mist
Cloud Levels
  • Clear skies

Nov-17@
14:00 UTC

Nov-17 @ 14:00 UTC

Nov-18@
12:00 UTC

Nov-18 @ 12:00 UTC

FM171400 VRB03KT P6SM SKC

From

From Standard forecast or significant change

Wind
  • Variable at 3 KTS
Cloud Levels
  • Clear skies